Saint Barthelemy, St. Barthelemy

6:36 AM AST on July 23, 2016 (GMT -0400)
Flamands | | Change Station

Elev 30 ft 17.92 °N, 62.86 °W | Updated 28 seconds ago

Scattered Clouds
Scattered Clouds
80.9 °F
Feels Like 85 °F
N
1.8
Wind Variable Wind from SSW
Gusts 6.2 mph

Today
High -- | Low -- °F
--% Chance of Precip.
Yesterday
High -- | Low -- °F
Precip. -- in
Pressure 29.98 in
Visibility 6.2 miles
Clouds Scattered Clouds 2100 ft
Heat Index 85 °F
Dew Point 72 °F
Humidity 74%
Rainfall 0.00 in
Snow Depth Not available.
5:47 AM 6:48 PM
Waning Gibbous, 86% visible
METAR TNCM 231000Z 08010KT 040V120 9999 SCT021 28/23 Q1015 A2997 NOSIG RMK LGT HZ SERN/SWRN QUAD
Pressure 29.98 in
Visibility 6.2 miles
Clouds Scattered Clouds 2100 ft
Heat Index 85 °F
Dew Point 72 °F
Humidity 74%
Rainfall 0.00 in
Snow Depth Not available.
5:47 AM 6:48 PM
Waning Gibbous, 86% visible
METAR TNCM 231000Z 08010KT 040V120 9999 SCT021 28/23 Q1015 A2997 NOSIG RMK LGT HZ SERN/SWRN QUAD

10-Day Weather Forecast

No radar image for this location.
×

Almanac

Astronomy

Jul. 23, 2016 Rise Set
Actual Time
Civil Twilight
Nautical Twilight
Astronomical Twilight
Moon
Length of Visible Light
Length of Day
Tomorrow will be .
, % of the Moon is Illuminated

Today's Extremes

Country Highs Country Lows

Community

WunderPhotos

Upload Photos

1,926,791 photos uploaded!

WunderBlog® & News

Nearby

Air Quality

  Air Quality AQ Index Pollutant
Not available.

Snow Depth

Station Depth Elevation

Earthquake Activity

City Distance Mag. Time & Date
Minimum magnitude displayed is 2.5.

Coastal Water Temperatures

Place Temperature

Stations

Nearby Weather Stations

Station Location Temp. Windchill Dew Point Humidity Wind Precip. Elev Updated Type